createdAt,value
2019-01-12T00:01:34.721Z,92.30
2019-01-12T00:04:03.583Z,92.70
2019-01-12T00:06:32.654Z,92.50
2019-01-12T00:09:01.105Z,92.00
2019-01-12T00:11:29.793Z,92.40
2019-01-12T00:13:58.450Z,92.30
2019-01-12T00:16:26.797Z,92.10
2019-01-12T00:18:56.162Z,92.70
2019-01-12T00:21:24.694Z,92.30
2019-01-12T00:23:53.069Z,92.30
2019-01-12T00:26:21.629Z,92.20
2019-01-12T00:28:50.001Z,92.30
2019-01-12T00:31:18.462Z,92.80
2019-01-12T00:33:47.041Z,92.60
2019-01-12T00:36:16.081Z,93.10
2019-01-12T00:38:44.444Z,93.40
2019-01-12T00:41:13.762Z,92.90
2019-01-12T00:43:42.577Z,92.40
2019-01-12T00:46:10.939Z,92.30
2019-01-12T00:48:39.278Z,92.80
2019-01-12T00:51:09.469Z,92.30
2019-01-12T00:53:37.926Z,92.70
2019-01-12T00:56:06.383Z,92.70
2019-01-12T00:58:36.543Z,93.20
2019-01-12T01:01:06.723Z,93.10
2019-01-12T01:03:35.193Z,93.30
2019-01-12T01:06:03.762Z,93.30
2019-01-12T01:08:32.223Z,93.50
2019-01-12T01:11:00.910Z,93.00
2019-01-12T01:13:29.378Z,92.90
2019-01-12T01:15:59.535Z,93.10
2019-01-12T01:18:27.910Z,93.40
2019-01-12T01:20:56.268Z,93.20
2019-01-12T01:23:24.635Z,93.50
2019-01-12T01:25:52.990Z,93.60
2019-01-12T01:28:21.358Z,93.30
2019-01-12T01:30:49.811Z,93.90
2019-01-12T01:33:18.364Z,94.00
2019-01-12T01:35:46.809Z,94.50
2019-01-12T01:38:15.263Z,94.80
2019-01-12T01:40:43.722Z,95.00
2019-01-12T01:43:12.089Z,94.50
2019-01-12T01:45:40.449Z,94.40
2019-01-12T01:48:08.898Z,94.20
2019-01-12T01:50:37.367Z,94.50
2019-01-12T01:53:05.741Z,94.30
2019-01-12T01:55:34.093Z,94.50
2019-01-12T01:58:02.540Z,95.00
2019-01-12T02:00:30.912Z,94.60
2019-01-12T02:02:59.476Z,94.00
2019-01-12T02:05:27.849Z,93.80
2019-01-12T02:07:56.225Z,93.50
2019-01-12T02:10:24.682Z,93.40
2019-01-12T02:12:53.330Z,93.20
2019-01-12T02:15:22.077Z,93.00
2019-01-12T02:17:50.652Z,93.30
2019-01-12T02:20:19.132Z,93.20
2019-01-12T02:22:47.683Z,93.30
2019-01-12T02:25:16.123Z,93.40
2019-01-12T02:27:44.474Z,93.90
2019-01-12T02:30:23.684Z,93.90
2019-01-12T02:32:53.466Z,93.30
2019-01-12T02:35:21.926Z,93.20
2019-01-12T02:37:50.277Z,94.00
2019-01-12T02:40:19.152Z,93.80
2019-01-12T02:42:47.615Z,93.90
2019-01-12T02:45:16.911Z,94.70
2019-01-12T02:47:45.246Z,94.30
2019-01-12T02:50:13.749Z,94.60
2019-01-12T02:52:42.297Z,94.30
2019-01-12T02:55:10.744Z,94.70
2019-01-12T02:57:39.207Z,94.30
2019-01-12T03:00:18.881Z,94.30
2019-01-12T03:02:49.577Z,94.20
2019-01-12T03:05:18.033Z,94.30
2019-01-12T03:07:46.522Z,94.40
2019-01-12T03:10:16.854Z,94.30
2019-01-12T03:12:45.416Z,94.90
2019-01-12T03:15:16.808Z,95.00
2019-01-12T03:17:45.146Z,95.10
2019-01-12T03:20:16.424Z,94.70
2019-01-12T03:22:45.016Z,94.70
2019-01-12T03:25:18.528Z,94.70
2019-01-12T03:27:45.567Z,94.80
2019-01-12T03:30:17.463Z,95.00
2019-01-12T03:32:46.000Z,95.50
2019-01-12T03:35:14.437Z,96.00
2019-01-12T03:37:43.108Z,95.90
2019-01-12T03:40:15.850Z,95.70
2019-01-12T03:42:44.265Z,96.00
2019-01-12T03:45:14.749Z,96.10
2019-01-12T03:47:44.934Z,96.20
2019-01-12T03:50:14.068Z,96.10
2019-01-12T03:52:42.640Z,95.80
2019-01-12T03:55:13.017Z,95.70
2019-01-12T03:57:41.567Z,95.70
2019-01-12T04:00:16.289Z,96.10
2019-01-12T04:02:44.816Z,95.80
2019-01-12T04:05:13.402Z,96.50
2019-01-12T04:07:41.853Z,96.10
2019-01-12T04:10:10.573Z,95.90
2019-01-12T04:12:40.792Z,96.00
2019-01-12T04:15:09.629Z,96.00
2019-01-12T04:17:38.900Z,96.40
2019-01-12T04:20:10.714Z,96.10
2019-01-12T04:22:39.271Z,96.10
2019-01-12T04:25:08.623Z,96.70
2019-01-12T04:27:37.698Z,96.60
2019-01-12T04:30:10.548Z,96.60
2019-01-12T04:32:39.051Z,96.50
2019-01-12T04:35:07.541Z,96.50
2019-01-12T04:37:35.992Z,96.20
2019-01-12T04:40:06.732Z,96.40
2019-01-12T04:42:35.294Z,96.20
2019-01-12T04:45:05.025Z,96.30
2019-01-12T04:47:33.500Z,96.60
2019-01-12T04:50:01.875Z,96.30
2019-01-12T04:52:30.311Z,96.60
2019-01-12T04:54:58.775Z,96.60
2019-01-12T04:57:27.127Z,96.60
2019-01-12T04:59:57.323Z,97.10
2019-01-12T05:02:25.821Z,97.30
2019-01-12T05:04:54.174Z,97.00
2019-01-12T05:07:23.441Z,96.60
2019-01-12T05:09:52.350Z,96.90
2019-01-12T05:12:22.412Z,96.40
2019-01-12T05:14:50.762Z,96.20
2019-01-12T05:17:19.123Z,96.60
2019-01-12T05:19:47.580Z,96.60
2019-01-12T05:22:16.114Z,96.80
2019-01-12T05:24:44.581Z,97.20
2019-01-12T05:27:13.225Z,97.30
2019-01-12T05:29:41.830Z,97.00
2019-01-12T05:32:10.329Z,97.30
2019-01-12T05:34:38.775Z,97.10
2019-01-12T05:37:08.149Z,97.40
2019-01-12T05:39:36.496Z,97.00
2019-01-12T05:42:05.000Z,97.20
2019-01-12T05:44:33.481Z,97.20
2019-01-12T05:47:01.943Z,97.30
2019-01-12T05:49:30.313Z,97.70
2019-01-12T05:51:58.813Z,97.60
2019-01-12T05:54:27.177Z,97.40
2019-01-12T05:56:55.525Z,97.60
2019-01-12T05:59:27.837Z,97.30
2019-01-12T06:01:56.299Z,97.70
2019-01-12T06:04:25.396Z,97.80
2019-01-12T06:06:54.893Z,97.90
2019-01-12T06:09:23.257Z,98.00
2019-01-12T06:11:51.792Z,97.80
2019-01-12T06:14:20.139Z,97.80
2019-01-12T06:16:48.635Z,97.50
2019-01-12T06:19:16.982Z,98.20
2019-01-12T06:21:45.704Z,98.00
2019-01-12T06:24:14.287Z,98.10
2019-01-12T06:26:42.746Z,98.00
2019-01-12T06:29:11.204Z,98.40
2019-01-12T06:31:39.587Z,98.40
2019-01-12T06:34:08.115Z,98.20
2019-01-12T06:36:36.472Z,97.80
2019-01-12T06:39:08.535Z,97.60
2019-01-12T06:41:38.038Z,98.10
2019-01-12T06:44:06.489Z,98.20
2019-01-12T06:46:34.990Z,98.40
2019-01-12T06:49:03.659Z,98.20
2019-01-12T06:51:32.092Z,98.40
2019-01-12T06:54:00.471Z,98.20
2019-01-12T06:56:28.847Z,98.60
2019-01-12T06:58:57.696Z,98.40
2019-01-12T07:01:26.250Z,98.20
2019-01-12T07:03:54.557Z,98.50
2019-01-12T07:06:24.643Z,98.30
2019-01-12T07:08:53.259Z,98.70
2019-01-12T07:11:21.645Z,98.60
2019-01-12T07:13:52.275Z,98.60
2019-01-12T07:16:21.265Z,98.30
2019-01-12T07:18:49.886Z,98.80
2019-01-12T07:21:20.387Z,99.20
2019-01-12T07:23:48.922Z,98.70
2019-01-12T07:26:17.773Z,98.70
2019-01-12T07:28:46.283Z,98.80
2019-01-12T07:31:14.958Z,98.70
2019-01-12T07:33:44.363Z,98.80
2019-01-12T07:36:13.312Z,98.80
2019-01-12T07:38:42.018Z,98.70
2019-01-12T07:41:10.716Z,98.80
2019-01-12T07:43:39.079Z,98.90
2019-01-12T07:46:07.649Z,98.50
2019-01-12T07:48:36.009Z,98.40
2019-01-12T07:51:04.363Z,98.40
2019-01-12T07:53:33.053Z,98.50
2019-01-12T07:56:01.605Z,98.80
2019-01-12T07:58:29.986Z,99.20
2019-01-12T08:00:58.346Z,99.20
2019-01-12T08:03:26.859Z,99.00
2019-01-12T08:05:55.322Z,98.40
2019-01-12T08:08:23.724Z,98.20
2019-01-12T08:10:52.181Z,99.00
2019-01-12T08:13:20.582Z,98.70
2019-01-12T08:15:49.506Z,98.50
2019-01-12T08:18:18.094Z,98.60
2019-01-12T08:20:46.672Z,98.90
2019-01-12T08:23:15.298Z,98.50
2019-01-12T08:25:44.133Z,98.00
2019-01-12T08:28:12.554Z,98.10
2019-01-12T08:30:41.027Z,97.90
2019-01-12T08:33:09.608Z,97.80
2019-01-12T08:35:38.457Z,97.40
2019-01-12T08:38:07.046Z,98.00
2019-01-12T08:40:36.130Z,98.10
2019-01-12T08:43:05.910Z,97.90
2019-01-12T08:45:34.408Z,97.30
2019-01-12T08:48:02.969Z,97.20
2019-01-12T08:50:31.985Z,97.30
2019-01-12T08:53:01.025Z,96.90
2019-01-12T08:55:30.412Z,96.30
2019-01-12T08:57:59.188Z,95.80
2019-01-12T09:00:30.848Z,96.00
2019-01-12T09:02:59.895Z,96.10
2019-01-12T09:05:29.023Z,95.60
2019-01-12T09:07:58.634Z,95.60
2019-01-12T09:10:27.548Z,96.00
2019-01-12T09:12:56.012Z,96.00
2019-01-12T09:15:24.595Z,96.20
2019-01-12T09:17:53.090Z,95.60
2019-01-12T09:20:21.985Z,95.70
2019-01-12T09:22:50.925Z,95.60
2019-01-12T09:25:19.324Z,95.90
2019-01-12T09:27:47.888Z,96.00
2019-01-12T09:30:19.055Z,95.80
2019-01-12T09:32:48.160Z,96.00
2019-01-12T09:35:17.650Z,96.20
2019-01-12T09:37:46.008Z,96.60
2019-01-12T09:40:17.207Z,96.80
2019-01-12T09:42:46.137Z,96.80
2019-01-12T09:45:15.469Z,96.40
2019-01-12T09:47:43.951Z,95.90
2019-01-12T09:50:15.710Z,96.20
2019-01-12T09:52:46.507Z,96.00
2019-01-12T09:55:14.897Z,96.20
2019-01-12T09:57:43.473Z,95.80
2019-01-12T10:00:25.638Z,95.20
2019-01-12T10:02:54.712Z,95.10
2019-01-12T10:05:23.385Z,96.00
2019-01-12T10:07:52.131Z,95.20
2019-01-12T10:10:21.054Z,96.00
2019-01-12T10:12:49.604Z,95.90
2019-01-12T10:15:18.316Z,96.20
2019-01-12T10:17:46.826Z,96.00
2019-01-12T10:20:17.162Z,96.30
2019-01-12T10:22:45.635Z,95.70
2019-01-12T10:25:15.227Z,95.70
2019-01-12T10:27:43.618Z,96.50
2019-01-12T10:30:23.543Z,96.10
2019-01-12T10:32:52.084Z,95.50
2019-01-12T10:35:20.460Z,95.50
2019-01-12T10:37:49.226Z,94.90
2019-01-12T10:40:18.284Z,94.40
2019-01-12T10:42:47.055Z,94.70
2019-01-12T10:45:17.429Z,94.00
2019-01-12T10:47:47.148Z,93.10
2019-01-12T10:50:19.776Z,92.90
2019-01-12T10:52:48.293Z,92.70
2019-01-12T10:55:17.061Z,92.70
2019-01-12T10:57:47.375Z,93.00
2019-01-12T11:00:30.252Z,92.50
2019-01-12T11:02:59.536Z,91.70
2019-01-12T11:05:27.966Z,92.10
2019-01-12T11:07:57.952Z,91.60
2019-01-12T11:10:26.415Z,91.30
2019-01-12T11:12:54.970Z,90.90
2019-01-12T11:15:23.556Z,90.50
2019-01-12T11:17:52.035Z,91.70
2019-01-12T11:20:20.422Z,90.50
2019-01-12T11:22:48.819Z,88.80
2019-01-12T11:25:17.367Z,89.60
2019-01-12T11:27:46.044Z,88.00
2019-01-12T11:30:16.590Z,86.50
2019-01-12T11:32:45.192Z,85.60
2019-01-12T11:35:14.348Z,86.20
2019-01-12T11:37:43.435Z,84.80
2019-01-12T11:40:18.297Z,84.30
2019-01-12T11:42:48.634Z,85.50
2019-01-12T11:45:17.304Z,85.00
2019-01-12T11:47:45.829Z,86.40
2019-01-12T11:50:14.935Z,87.60
2019-01-12T11:52:44.254Z,88.80
2019-01-12T11:55:14.317Z,87.90
2019-01-12T11:57:44.676Z,87.70
2019-01-12T12:00:29.430Z,88.50
2019-01-12T12:02:59.457Z,89.30
2019-01-12T12:05:27.936Z,90.00
2019-01-12T12:07:57.711Z,89.80
2019-01-12T12:10:26.188Z,89.00
2019-01-12T12:12:54.721Z,89.80
2019-01-12T12:15:23.539Z,90.20
2019-01-12T12:17:52.067Z,89.60
2019-01-12T12:20:23.784Z,88.20
2019-01-12T12:22:55.592Z,86.80
2019-01-12T12:25:24.294Z,87.10
2019-01-12T12:27:54.493Z,87.40
2019-01-12T12:30:26.565Z,88.20
2019-01-12T12:32:55.284Z,89.30
2019-01-12T12:35:24.088Z,89.00
2019-01-12T12:37:52.910Z,89.30
2019-01-12T12:40:21.969Z,88.90
2019-01-12T12:42:50.536Z,90.50
2019-01-12T12:45:26.128Z,90.80
2019-01-12T12:47:54.701Z,90.10
2019-01-12T12:50:23.288Z,90.30
2019-01-12T12:52:51.834Z,90.30
2019-01-12T12:55:20.319Z,90.50
2019-01-12T12:57:48.878Z,90.30
2019-01-12T13:00:26.713Z,90.30
2019-01-12T13:02:56.260Z,90.50
2019-01-12T13:05:24.954Z,90.00
2019-01-12T13:07:53.465Z,90.40
2019-01-12T13:10:30.187Z,90.30
2019-01-12T13:12:58.850Z,90.90
2019-01-12T13:15:27.224Z,90.60
2019-01-12T13:17:56.531Z,91.00
2019-01-12T13:20:24.927Z,91.10
2019-01-12T13:22:53.801Z,91.30
2019-01-12T13:25:22.483Z,91.60
2019-01-12T13:27:50.836Z,91.90
2019-01-12T13:30:22.981Z,92.00
2019-01-12T13:32:53.438Z,91.10
2019-01-12T13:35:22.023Z,91.70
2019-01-12T13:37:50.778Z,90.80
2019-01-12T13:40:23.109Z,91.00
2019-01-12T13:42:51.681Z,91.10
2019-01-12T13:45:20.330Z,91.00
2019-01-12T13:47:48.772Z,90.60
2019-01-12T13:50:20.321Z,91.10
2019-01-12T13:52:49.130Z,90.90
2019-01-12T13:55:17.507Z,90.90
2019-01-12T13:57:48.223Z,91.20
2019-01-12T14:00:34.154Z,90.80
2019-01-12T14:03:04.670Z,91.10
2019-01-12T14:05:33.119Z,91.20
2019-01-12T14:08:01.612Z,91.40
2019-01-12T14:10:30.200Z,91.30
2019-01-12T14:12:58.633Z,90.90
2019-01-12T14:15:27.315Z,91.90
2019-01-12T14:17:55.796Z,91.50
2019-01-12T14:20:36.602Z,91.70
2019-01-12T14:23:05.518Z,91.30
2019-01-12T14:25:34.398Z,91.40
2019-01-12T14:28:02.781Z,92.50
2019-01-12T14:30:31.470Z,92.20
2019-01-12T14:33:00.275Z,91.90
2019-01-12T14:35:28.760Z,92.90
2019-01-12T14:37:57.810Z,92.40
2019-01-12T14:40:26.814Z,92.50
2019-01-12T14:42:56.416Z,92.90
2019-01-12T14:45:30.868Z,93.70
2019-01-12T14:47:59.480Z,94.30
2019-01-12T14:50:28.151Z,94.10
2019-01-12T14:52:56.662Z,93.80
2019-01-12T14:55:25.145Z,93.90
2019-01-12T14:58:01.559Z,93.60
2019-01-12T15:00:31.485Z,94.20
2019-01-12T15:03:00.179Z,93.80
2019-01-12T15:05:31.188Z,93.10
2019-01-12T15:08:00.632Z,93.20
2019-01-12T15:10:31.029Z,93.70
2019-01-12T15:12:59.496Z,94.00
2019-01-12T15:15:28.232Z,94.00
2019-01-12T15:17:57.129Z,94.20
2019-01-12T15:20:27.917Z,94.40
2019-01-12T15:22:56.308Z,94.90
2019-01-12T15:25:25.536Z,95.30
2019-01-12T15:27:54.174Z,95.10
2019-01-12T15:30:25.641Z,95.00
2019-01-12T15:32:54.364Z,95.50
2019-01-12T15:35:25.356Z,95.80
2019-01-12T15:37:53.855Z,96.00
2019-01-12T15:40:22.449Z,96.10
2019-01-12T15:42:51.031Z,96.30
2019-01-12T15:45:22.132Z,96.40
2019-01-12T15:47:51.656Z,96.80
2019-01-12T15:50:22.908Z,96.80
2019-01-12T15:52:51.606Z,96.70
2019-01-12T15:55:20.412Z,96.90
2019-01-12T15:57:48.792Z,97.10
2019-01-12T16:00:32.488Z,97.30
2019-01-12T16:03:01.990Z,97.60
2019-01-12T16:05:31.139Z,97.50
2019-01-12T16:07:59.841Z,97.70
2019-01-12T16:10:30.752Z,97.70
2019-01-12T16:13:00.863Z,98.10
2019-01-12T16:15:31.689Z,97.90
2019-01-12T16:18:00.254Z,98.20
2019-01-12T16:20:39.951Z,98.40
2019-01-12T16:23:12.939Z,98.20
2019-01-12T16:25:43.862Z,98.50
2019-01-12T16:28:12.887Z,98.10
2019-01-12T16:30:43.375Z,98.40
2019-01-12T16:33:13.855Z,98.50
2019-01-12T16:35:42.434Z,98.70
2019-01-12T16:38:11.333Z,98.90
2019-01-12T16:40:39.748Z,98.80
2019-01-12T16:43:08.780Z,98.70
2019-01-12T16:45:37.178Z,98.40
2019-01-12T16:48:05.587Z,98.90
2019-01-12T16:50:34.094Z,99.00
2019-01-12T16:53:02.914Z,99.00
2019-01-12T16:55:31.529Z,99.00
2019-01-12T16:58:00.042Z,99.20
2019-01-12T17:00:30.714Z,99.60
2019-01-12T17:03:00.807Z,99.30
2019-01-12T17:05:29.425Z,99.60
2019-01-12T17:07:58.129Z,99.60
2019-01-12T17:10:27.464Z,99.70
2019-01-12T17:12:56.001Z,99.80
2019-01-12T17:15:24.579Z,99.60
2019-01-12T17:17:54.248Z,99.50
2019-01-12T17:20:25.644Z,99.70
2019-01-12T17:23:00.556Z,99.90
2019-01-12T17:25:29.401Z,99.90
2019-01-12T17:27:58.111Z,99.90
2019-01-12T17:30:33.251Z,99.90
2019-01-12T17:33:02.124Z,99.90
2019-01-12T17:35:30.699Z,99.90
2019-01-12T17:37:59.558Z,99.90
2019-01-12T17:40:29.057Z,99.90
2019-01-12T17:42:59.338Z,99.90
2019-01-12T17:45:28.060Z,99.90
2019-01-12T17:47:57.442Z,99.90
2019-01-12T17:50:27.543Z,99.90
2019-01-12T17:52:56.260Z,99.90
2019-01-12T17:55:26.304Z,99.90
2019-01-12T17:57:56.519Z,99.90
2019-01-12T18:00:35.106Z,99.90
2019-01-12T18:03:03.698Z,99.90
2019-01-12T18:05:32.081Z,99.90
2019-01-12T18:08:00.563Z,99.90
2019-01-12T18:10:30.465Z,99.90
2019-01-12T18:12:59.352Z,99.90
2019-01-12T18:15:27.748Z,99.90
2019-01-12T18:17:56.127Z,99.90
2019-01-12T18:20:24.499Z,99.90
2019-01-12T18:22:52.914Z,99.90
2019-01-12T18:25:21.287Z,99.90
2019-01-12T18:27:49.691Z,99.90
2019-01-12T18:30:19.467Z,99.90
2019-01-12T18:32:49.617Z,99.90
2019-01-12T18:35:18.108Z,99.90
2019-01-12T18:37:47.701Z,99.90
2019-01-12T18:40:17.293Z,99.90
2019-01-12T18:42:45.978Z,99.90
2019-01-12T18:45:17.007Z,99.90
2019-01-12T18:47:45.498Z,99.90
2019-01-12T18:50:17.635Z,99.90
2019-01-12T18:52:46.306Z,99.90
2019-01-12T18:55:14.821Z,99.90
2019-01-12T18:57:43.183Z,99.90
2019-01-12T19:00:19.421Z,99.90
2019-01-12T19:02:49.788Z,99.90
2019-01-12T19:05:20.100Z,99.90
2019-01-12T19:07:48.578Z,99.90
2019-01-12T19:10:17.065Z,99.90
2019-01-12T19:12:45.570Z,99.90
2019-01-12T19:15:24.087Z,99.90
2019-01-12T19:17:52.789Z,99.90
2019-01-12T19:20:21.477Z,99.90
2019-01-12T19:22:50.161Z,99.90
2019-01-12T19:25:18.976Z,99.90
2019-01-12T19:27:47.474Z,99.90
2019-01-12T19:30:19.677Z,99.90
2019-01-12T19:32:48.169Z,99.90
2019-01-12T19:35:16.649Z,99.90
2019-01-12T19:37:45.301Z,99.90
2019-01-12T19:40:22.328Z,99.90
2019-01-12T19:42:50.869Z,99.90
2019-01-12T19:45:21.060Z,99.90
2019-01-12T19:47:49.449Z,99.90
2019-01-12T19:50:21.357Z,99.90
2019-01-12T19:52:51.121Z,99.90
2019-01-12T19:55:20.970Z,99.90
2019-01-12T19:57:49.466Z,99.90
2019-01-12T20:00:29.440Z,99.90
2019-01-12T20:02:58.011Z,99.90
2019-01-12T20:05:26.479Z,99.90
2019-01-12T20:07:54.863Z,99.90
2019-01-12T20:10:23.628Z,99.90
2019-01-12T20:12:55.893Z,99.90
2019-01-12T20:15:25.153Z,99.90
2019-01-12T20:17:55.260Z,99.90
2019-01-12T20:20:23.629Z,99.90
2019-01-12T20:22:53.296Z,99.90
2019-01-12T20:25:25.652Z,99.90
2019-01-12T20:27:54.024Z,99.90
2019-01-12T20:30:55.812Z,99.90
2019-01-12T20:34:18.133Z,99.90
2019-01-12T20:38:09.601Z,99.90
2019-01-12T20:42:09.447Z,99.90
2019-01-12T20:45:37.387Z,99.90
2019-01-12T20:48:53.821Z,99.90
2019-01-12T20:52:34.875Z,99.90
2019-01-12T20:55:49.849Z,99.90
2019-01-12T20:59:28.263Z,99.90
2019-01-12T21:03:29.266Z,99.90
2019-01-12T21:06:27.190Z,99.90
2019-01-12T21:09:49.299Z,99.90
2019-01-12T21:13:19.487Z,99.90
2019-01-12T21:15:56.556Z,99.90
2019-01-12T21:18:25.228Z,99.90
2019-01-12T21:20:53.698Z,99.90
2019-01-12T21:23:22.196Z,99.90
2019-01-12T21:25:50.623Z,99.90
2019-01-12T21:28:18.990Z,99.90
2019-01-12T21:30:47.347Z,99.90
2019-01-12T21:33:16.044Z,99.90
2019-01-12T21:35:44.516Z,99.90
2019-01-12T21:38:13.003Z,99.90
2019-01-12T21:40:41.369Z,99.90
2019-01-12T21:43:09.953Z,99.90
2019-01-12T21:45:39.944Z,99.90
2019-01-12T21:48:08.346Z,99.90
2019-01-12T21:50:36.707Z,99.90
2019-01-12T21:53:06.481Z,99.90
2019-01-12T21:55:34.878Z,99.90
2019-01-12T21:58:05.523Z,99.90
2019-01-12T22:00:34.001Z,99.90
2019-01-12T22:03:02.611Z,99.90
2019-01-12T22:05:30.974Z,99.90
2019-01-12T22:07:59.344Z,99.90
2019-01-12T22:10:28.027Z,99.90
2019-01-12T22:12:56.530Z,99.90
2019-01-12T22:15:25.303Z,99.90
2019-01-12T22:17:53.696Z,99.90
2019-01-12T22:20:22.364Z,99.90
2019-01-12T22:22:50.767Z,99.90
2019-01-12T22:25:19.278Z,99.90
2019-01-12T22:27:47.733Z,99.90
2019-01-12T22:30:17.195Z,99.90
2019-01-12T22:32:46.090Z,99.90
2019-01-12T22:35:14.556Z,99.90
2019-01-12T22:37:42.945Z,99.90
2019-01-12T22:40:18.586Z,99.90
2019-01-12T22:42:47.315Z,99.90
2019-01-12T22:45:15.793Z,99.90
2019-01-12T22:47:44.378Z,99.90
2019-01-12T22:50:13.924Z,99.90
2019-01-12T22:52:42.673Z,99.90
2019-01-12T22:55:11.783Z,99.90
2019-01-12T22:57:40.260Z,99.90
2019-01-12T23:00:52.870Z,99.90
2019-01-12T23:03:21.456Z,99.90
2019-01-12T23:05:50.196Z,99.90
2019-01-12T23:08:18.878Z,99.90
2019-01-12T23:10:49.058Z,99.90
2019-01-12T23:13:17.523Z,99.90
2019-01-12T23:15:46.088Z,99.90
2019-01-12T23:18:15.781Z,99.90
2019-01-12T23:20:44.240Z,99.90
2019-01-12T23:23:12.682Z,99.90
2019-01-12T23:25:41.038Z,99.90
2019-01-12T23:28:09.529Z,99.90
2019-01-12T23:30:38.091Z,99.90
2019-01-12T23:33:07.518Z,99.90
2019-01-12T23:35:36.783Z,99.90
2019-01-12T23:38:05.369Z,99.90
2019-01-12T23:40:35.552Z,99.90
2019-01-12T23:43:04.214Z,99.90
2019-01-12T23:45:32.660Z,99.90
2019-01-12T23:48:02.046Z,99.90
2019-01-12T23:50:32.309Z,99.90
2019-01-12T23:53:00.695Z,99.90
2019-01-12T23:55:30.862Z,99.90
2019-01-12T23:57:59.233Z,99.90
